Time;durP1;ratioP1;P1;durP2;ratioP2;P2;SDS_P1;SDS_P2;PMS_P1;PMS_P2;Temp;Humidity;BMP_temperature;BMP_pressure;BME280_temperature;BME280_humidity;BME280_pressure;Samples;Min_cycle;Max_cycle;Signal;HPM_P1;HPM_P2
2024/03/15 00:00:00;;;;;;;13.50;4.43;;;;;;;10.48;100.00;100491.88;5026609;28;20450;-76
2024/03/15 00:02:26;;;;;;;11.70;5.07;;;;;;;10.45;100.00;100501.75;5024578;28;20056;-75
2024/03/15 00:04:52;;;;;;;7.82;4.30;;;;;;;10.41;100.00;100498.69;5027510;28;20067;-75
2024/03/15 00:07:18;;;;;;;8.82;4.60;;;;;;;10.36;100.00;100497.53;5019339;28;20480;-76
2024/03/15 00:09:44;;;;;;;10.77;5.72;;;;;;;10.35;100.00;100507.13;5009684;28;20033;-76
2024/03/15 00:12:10;;;;;;;9.20;4.85;;;;;;;10.32;100.00;100500.47;5005274;28;20029;-75
2024/03/15 00:14:37;;;;;;;10.82;5.82;;;;;;;10.28;100.00;100499.16;5053715;28;20044;-75
2024/03/15 00:17:03;;;;;;;10.05;5.18;;;;;;;10.26;100.00;100501.06;5024841;28;20033;-76
2024/03/15 00:19:28;;;;;;;12.52;5.05;;;;;;;10.23;100.00;100498.03;5054669;28;20045;-76
2024/03/15 00:21:54;;;;;;;10.82;5.30;;;;;;;10.21;100.00;100498.16;5052269;28;20476;-76
2024/03/15 00:24:19;;;;;;;9.95;5.60;;;;;;;10.21;100.00;100499.94;5005908;28;20029;-75
2024/03/15 00:26:45;;;;;;;15.02;5.25;;;;;;;10.19;100.00;100494.94;5027070;28;20021;-75
2024/03/15 00:29:11;;;;;;;12.52;5.20;;;;;;;10.17;100.00;100501.22;5024307;28;20037;-75
2024/03/15 00:31:39;;;;;;;10.30;5.25;;;;;;;10.15;100.00;100496.19;5025165;28;20026;-76
2024/03/15 00:34:05;;;;;;;10.60;5.32;;;;;;;10.16;100.00;100486.66;5024516;28;20069;-75
2024/03/15 00:36:31;;;;;;;10.35;5.38;;;;;;;10.20;100.00;100485.38;5021633;28;20064;-76
2024/03/15 00:38:57;;;;;;;9.32;4.72;;;;;;;10.20;100.00;100491.34;5025688;28;20095;-76
2024/03/15 00:41:23;;;;;;;10.40;4.57;;;;;;;10.29;100.00;100494.78;5026336;28;20553;-75
2024/03/15 00:43:49;;;;;;;8.32;4.45;;;;;;;10.29;100.00;100492.19;5022535;28;20034;-75
2024/03/15 00:46:15;;;;;;;9.30;4.50;;;;;;;10.33;100.00;100483.94;5022909;28;20056;-77
2024/03/15 00:48:41;;;;;;;10.60;5.20;;;;;;;10.68;100.00;100482.00;5026881;28;20112;-75
2024/03/15 00:51:07;;;;;;;9.80;4.40;;;;;;;10.65;100.00;100484.91;5023028;28;20132;-77
2024/03/15 00:53:33;;;;;;;10.27;4.38;;;;;;;10.61;100.00;100478.44;5025384;28;20064;-75
2024/03/15 00:55:59;;;;;;;12.00;4.60;;;;;;;10.71;100.00;100470.47;5022679;28;20034;-76
2024/03/15 00:58:25;;;;;;;7.00;3.88;;;;;;;10.74;100.00;100467.56;5026449;28;20044;-75
2024/03/15 01:00:51;;;;;;;11.85;3.58;;;;;;;10.79;100.00;100462.66;5023523;28;20495;-76
2024/03/15 01:03:18;;;;;;;10.07;4.47;;;;;;;10.85;100.00;100466.38;5026161;28;20033;-77
2024/03/15 01:05:44;;;;;;;8.80;3.38;;;;;;;10.96;100.00;100465.22;5023943;28;20045;-76
2024/03/15 01:08:09;;;;;;;7.00;3.30;;;;;;;11.08;100.00;100467.31;5024452;28;20110;-75
2024/03/15 01:10:36;;;;;;;5.70;2.95;;;;;;;11.09;100.00;100478.47;5025247;28;20072;-75
2024/03/15 01:13:03;;;;;;;7.38;3.47;;;;;;;11.20;100.00;100472.13;5039288;28;20061;-75
2024/03/15 01:15:29;;;;;;;11.07;3.47;;;;;;;11.34;100.00;100476.63;5023516;28;20065;-77
2024/03/15 01:17:55;;;;;;;7.93;2.80;;;;;;;11.29;100.00;100476.31;5036187;28;20036;-76
2024/03/15 01:20:20;;;;;;;5.65;3.10;;;;;;;11.27;100.00;100475.69;5022668;28;20029;-75
2024/03/15 01:22:47;;;;;;;5.40;2.75;;;;;;;11.30;100.00;100476.16;5021202;28;20244;-75
2024/03/15 01:25:17;;;;;;;4.63;2.50;;;;;;;11.34;100.00;100473.19;5020430;28;20634;-76
2024/03/15 01:27:42;;;;;;;7.40;3.25;;;;;;;11.42;100.00;100473.19;5020641;28;20716;-74
2024/03/15 01:30:09;;;;;;;7.72;2.75;;;;;;;11.50;100.00;100468.75;5020701;28;20036;-76
2024/03/15 01:32:35;;;;;;;7.15;2.92;;;;;;;11.61;100.00;100470.16;5020108;28;20860;-77
2024/03/15 01:35:02;;;;;;;7.47;3.03;;;;;;;11.61;100.00;100467.56;5023154;28;20033;-76
2024/03/15 01:37:27;;;;;;;6.03;2.90;;;;;;;11.57;100.00;100457.69;5020566;28;20041;-76
2024/03/15 01:39:53;;;;;;;4.75;2.67;;;;;;;11.47;100.00;100463.91;5009535;28;20036;-77
2024/03/15 01:42:18;;;;;;;7.88;2.95;;;;;;;11.54;100.00;100464.03;5022631;28;20645;-75
2024/03/15 01:44:56;;;;;;;7.82;3.35;;;;;;;11.55;100.00;100457.88;5039430;28;20041;-75
2024/03/15 01:47:26;;;;;;;9.45;2.72;;;;;;;11.62;100.00;100464.00;5038349;28;20041;-75
2024/03/15 01:49:54;;;;;;;7.78;3.13;;;;;;;11.69;100.00;100459.72;5026768;28;20034;-75
2024/03/15 01:52:24;;;;;;;7.95;3.50;;;;;;;11.61;100.00;100457.19;5043589;28;20026;-75
2024/03/15 01:54:49;;;;;;;8.98;3.08;;;;;;;11.50;100.00;100460.16;5023789;28;20033;-76
2024/03/15 01:57:16;;;;;;;5.60;3.00;;;;;;;11.45;100.00;100452.88;5007911;28;20029;-75
2024/03/15 01:59:42;;;;;;;8.27;2.88;;;;;;;11.58;100.00;100449.72;5023726;28;20041;-76
2024/03/15 02:02:09;;;;;;;6.95;2.85;;;;;;;11.55;100.00;100446.69;5024048;28;20488;-75
2024/03/15 02:04:35;;;;;;;8.02;2.58;;;;;;;11.60;100.00;100444.34;5038983;28;20044;-76
2024/03/15 02:07:01;;;;;;;5.68;2.67;;;;;;;11.67;100.00;100453.88;5027272;28;20144;-76
2024/03/15 02:09:30;;;;;;;6.97;2.38;;;;;;;11.60;100.00;100449.56;5023822;28;20116;-76
2024/03/15 02:11:57;;;;;;;9.27;2.92;;;;;;;11.48;100.00;100452.53;5024098;28;20028;-76
2024/03/15 02:14:23;;;;;;;5.55;2.70;;;;;;;11.49;100.00;100448.97;5028380;28;20041;-77
2024/03/15 02:16:49;;;;;;;7.38;2.55;;;;;;;11.56;100.00;100446.47;5026934;28;20029;-76
2024/03/15 02:19:15;;;;;;;9.75;2.70;;;;;;;11.55;100.00;100446.69;5012970;28;20381;-76
2024/03/15 02:21:41;;;;;;;5.35;2.92;;;;;;;11.66;100.00;100438.50;5024744;28;20033;-76
2024/03/15 02:24:06;;;;;;;6.25;2.38;;;;;;;11.81;100.00;100441.97;5029048;28;20025;-76
2024/03/15 02:26:33;;;;;;;5.68;2.33;;;;;;;11.70;100.00;100439.78;5027624;28;20100;-75
2024/03/15 02:28:58;;;;;;;5.82;2.70;;;;;;;11.64;100.00;100443.84;5030092;28;20108;-76
2024/03/15 02:31:25;;;;;;;6.25;2.50;;;;;;;11.55;100.00;100446.69;5027076;28;20036;-76
2024/03/15 02:33:51;;;;;;;5.93;2.33;;;;;;;11.63;100.00;100449.22;5030222;28;20033;-76
2024/03/15 02:36:16;;;;;;;5.53;2.70;;;;;;;11.81;100.00;100451.53;5026013;28;20036;-78
2024/03/15 02:38:42;;;;;;;4.45;2.45;;;;;;;11.76;100.00;100452.06;5056859;28;20040;-76
2024/03/15 02:41:13;;;;;;;4.55;2.70;;;;;;;11.69;100.00;100449.31;5029417;28;20036;-76
2024/03/15 02:43:40;;;;;;;7.70;2.50;;;;;;;11.71;100.00;100448.34;5025735;28;20037;-76
2024/03/15 02:46:05;;;;;;;3.97;2.55;;;;;;;11.74;100.00;100448.81;5023618;28;20049;-76
2024/03/15 02:48:32;;;;;;;5.00;2.55;;;;;;;11.65;100.00;100450.66;5025829;28;20508;-75
2024/03/15 02:51:01;;;;;;;8.52;2.20;;;;;;;11.77;100.00;100453.69;5026513;28;20092;-76
2024/03/15 02:53:27;;;;;;;5.15;2.35;;;;;;;11.96;100.00;100443.84;5028137;28;20029;-75
2024/03/15 02:55:52;;;;;;;4.65;2.60;;;;;;;11.87;100.00;100446.47;5028064;28;20898;-76
2024/03/15 02:58:19;;;;;;;5.13;2.15;;;;;;;11.77;100.00;100456.28;5024899;28;20037;-76
2024/03/15 03:00:46;;;;;;;5.13;2.17;;;;;;;11.82;100.00;100460.94;5027140;28;20476;-75
2024/03/15 03:03:12;;;;;;;5.00;2.40;;;;;;;11.84;100.00;100451.19;5011272;28;20437;-75
2024/03/15 03:05:37;;;;;;;5.57;2.35;;;;;;;11.87;100.00;100458.66;5026231;28;20021;-75
2024/03/15 03:08:04;;;;;;;4.38;2.38;;;;;;;11.83;100.00;100457.38;5022800;28;20049;-77
2024/03/15 03:10:30;;;;;;;6.18;2.22;;;;;;;11.82;100.00;100459.16;5027293;28;20038;-76
2024/03/15 03:12:55;;;;;;;6.30;2.30;;;;;;;11.74;100.00;100464.41;5027353;28;20064;-75
2024/03/15 03:15:21;;;;;;;7.50;2.50;;;;;;;11.78;100.00;100455.28;5027058;28;20041;-75
2024/03/15 03:17:46;;;;;;;4.88;2.25;;;;;;;11.82;100.00;100456.56;5028947;28;20419;-75
2024/03/15 03:20:18;;;;;;;7.47;2.65;;;;;;;11.77;100.00;100463.25;5032336;28;20029;-76
2024/03/15 03:22:45;;;;;;;6.63;2.90;;;;;;;11.80;100.00;100461.13;5027331;28;20643;-75
2024/03/15 03:25:10;;;;;;;9.23;2.80;;;;;;;11.80;100.00;100465.53;5024195;28;20045;-76
2024/03/15 03:27:36;;;;;;;4.88;2.45;;;;;;;11.81;100.00;100456.72;5026784;28;20041;-77
2024/03/15 03:30:03;;;;;;;16.85;4.22;;;;;;;11.82;100.00;100463.56;5026953;28;20033;-76
2024/03/15 03:32:29;;;;;;;5.68;2.38;;;;;;;11.78;100.00;100462.28;5024793;28;20462;-75
2024/03/15 03:34:54;;;;;;;5.90;2.22;;;;;;;11.76;100.00;100466.84;5024519;28;20033;-75
2024/03/15 03:37:19;;;;;;;8.30;2.63;;;;;;;11.76;100.00;100462.44;5057353;28;20815;-75
2024/03/15 03:39:46;;;;;;;8.23;2.40;;;;;;;11.74;100.00;100464.41;5027332;28;21625;-75
2024/03/15 03:42:11;;;;;;;6.53;2.67;;;;;;;11.75;100.00;100463.41;5024306;28;20069;-75
2024/03/15 03:44:37;;;;;;;5.85;2.22;;;;;;;11.84;100.00;100462.38;5024536;28;20727;-76
2024/03/15 03:47:03;;;;;;;9.02;2.60;;;;;;;11.78;100.00;100457.88;5025274;28;20614;-76
2024/03/15 03:49:29;;;;;;;11.52;3.10;;;;;;;11.83;100.00;100460.78;5024339;28;20128;-77
2024/03/15 03:51:54;;;;;;;6.40;2.80;;;;;;;11.72;100.00;100457.78;5024562;28;20029;-75
2024/03/15 03:54:19;;;;;;;9.52;3.00;;;;;;;11.86;100.00;100459.63;5024980;28;20087;-76
2024/03/15 03:56:47;;;;;;;9.10;2.80;;;;;;;11.80;100.00;100455.94;5023086;28;20484;-77
2024/03/15 03:59:13;;;;;;;6.28;2.53;;;;;;;11.84;100.00;100452.00;5022366;28;20033;-76
2024/03/15 04:01:39;;;;;;;5.78;3.10;;;;;;;11.84;100.00;100454.59;5009324;28;20037;-76
2024/03/15 04:04:04;;;;;;;7.60;2.60;;;;;;;11.82;100.00;100450.56;5027018;28;20053;-76
2024/03/15 04:06:31;;;;;;;5.50;2.60;;;;;;;11.74;100.00;100455.81;5026864;28;20027;-78
2024/03/15 04:08:57;;;;;;;6.60;2.42;;;;;;;11.66;100.00;100459.28;5023268;28;20433;-75
2024/03/15 04:11:23;;;;;;;12.35;2.90;;;;;;;11.72;100.00;100457.78;5027638;28;20061;-75
2024/03/15 04:13:52;;;;;;;4.90;2.40;;;;;;;11.64;100.00;100454.25;5027273;28;20120;-76
2024/03/15 04:16:18;;;;;;;7.88;3.05;;;;;;;11.84;100.00;100456.41;5025541;28;20065;-75
2024/03/15 04:18:44;;;;;;;9.23;2.83;;;;;;;11.81;100.00;100457.56;5024312;28;20032;-76
2024/03/15 04:21:10;;;;;;;6.47;2.35;;;;;;;11.86;100.00;100452.63;5053249;28;20399;-75
2024/03/15 04:23:36;;;;;;;8.18;2.80;;;;;;;11.77;100.00;100458.06;5024684;28;20037;-75
2024/03/15 04:26:02;;;;;;;7.40;2.67;;;;;;;11.99;100.00;100451.28;5021940;28;20033;-76
2024/03/15 04:28:28;;;;;;;6.43;2.60;;;;;;;11.79;100.00;100462.13;5024763;28;20038;-76
2024/03/15 04:30:57;;;;;;;6.47;2.58;;;;;;;11.88;100.00;100458.50;5023676;28;20037;-76
2024/03/15 04:33:22;;;;;;;4.63;2.58;;;;;;;11.98;100.00;100458.28;5021610;28;20033;-78
2024/03/15 04:35:50;;;;;;;8.77;2.90;;;;;;;11.88;100.00;100468.88;5054821;28;20028;-75
2024/03/15 04:38:16;;;;;;;5.82;2.75;;;;;;;11.87;100.00;100469.84;5024293;28;20067;-75
2024/03/15 04:40:41;;;;;;;9.82;2.90;;;;;;;11.91;100.00;100462.56;5013253;28;20392;-76
2024/03/15 04:43:07;;;;;;;8.05;2.47;;;;;;;11.92;100.00;100463.34;5022243;28;20037;-76
2024/03/15 04:45:32;;;;;;;7.93;2.78;;;;;;;11.84;100.00;100456.41;5053844;28;20049;-76
2024/03/15 04:48:00;;;;;;;5.78;2.75;;;;;;;11.82;100.00;100463.56;5022401;28;20099;-75
2024/03/15 04:50:26;;;;;;;8.75;2.90;;;;;;;11.80;100.00;100465.53;5026587;28;20495;-75
2024/03/15 04:52:53;;;;;;;6.53;2.80;;;;;;;11.81;100.00;100464.53;5022890;28;20073;-76
2024/03/15 04:55:20;;;;;;;8.70;2.65;;;;;;;11.93;100.00;100459.78;5023174;28;20365;-75
2024/03/15 04:57:47;;;;;;;8.02;3.13;;;;;;;11.95;100.00;100456.03;5020740;28;20033;-76
2024/03/15 05:00:18;;;;;;;5.35;3.10;;;;;;;11.98;100.00;100462.66;5024048;28;20169;-75
2024/03/15 05:02:51;;;;;;;5.60;2.60;;;;;;;11.93;100.00;100467.59;5025356;28;20378;-75
2024/03/15 05:05:17;;;;;;;6.88;2.85;;;;;;;11.94;100.00;100467.41;5023486;28;20044;-76
2024/03/15 05:07:43;;;;;;;8.18;3.13;;;;;;;11.81;100.00;100467.94;5023292;28;20068;-75
2024/03/15 05:10:14;;;;;;;14.48;4.30;;;;;;;11.82;100.00;100468.75;5024343;28;20029;-76
2024/03/15 05:12:43;;;;;;;5.60;2.72;;;;;;;11.84;100.00;100469.38;5052277;28;20033;-76
2024/03/15 05:15:10;;;;;;;6.43;2.63;;;;;;;11.87;100.00;100469.84;5025263;28;20392;-75
2024/03/15 05:17:36;;;;;;;9.32;2.72;;;;;;;11.79;100.00;100469.91;5022564;28;20052;-75
2024/03/15 05:20:02;;;;;;;6.18;3.28;;;;;;;11.82;100.00;100466.94;5026114;28;20858;-76
2024/03/15 05:22:27;;;;;;;4.97;3.00;;;;;;;11.88;100.00;100465.44;5024146;28;20053;-75
2024/03/15 05:24:53;;;;;;;8.40;3.42;;;;;;;11.83;100.00;100467.78;5023074;28;20075;-75
2024/03/15 05:27:18;;;;;;;5.55;2.70;;;;;;;11.79;100.00;100464.72;5032456;28;20829;-76
2024/03/15 05:29:44;;;;;;;6.68;3.40;;;;;;;11.72;100.00;100465.56;5021137;28;20032;-76
2024/03/15 05:32:09;;;;;;;7.88;2.95;;;;;;;11.77;100.00;100465.84;5022105;28;20365;-75
2024/03/15 05:34:35;;;;;;;11.35;2.80;;;;;;;11.65;100.00;100463.63;5024660;28;20048;-75
2024/03/15 05:37:01;;;;;;;10.00;3.00;;;;;;;11.71;100.00;100469.94;5023909;28;20045;-75
2024/03/15 05:39:28;;;;;;;6.20;2.78;;;;;;;11.74;100.00;100467.00;5022171;28;20399;-77
2024/03/15 05:41:54;;;;;;;6.55;2.90;;;;;;;11.72;100.00;100470.78;5027963;28;20047;-76
2024/03/15 05:44:19;;;;;;;5.95;3.17;;;;;;;11.71;100.00;100466.53;5022407;28;21669;-75
2024/03/15 05:46:45;;;;;;;6.97;3.08;;;;;;;11.63;100.00;100473.41;5025219;28;20029;-75
2024/03/15 05:49:10;;;;;;;6.50;2.92;;;;;;;11.81;100.00;100472.31;5026164;28;20056;-78
2024/03/15 05:51:36;;;;;;;9.35;3.42;;;;;;;11.85;100.00;100478.81;5025387;28;20088;-77
2024/03/15 05:54:03;;;;;;;8.93;3.35;;;;;;;11.74;100.00;100472.22;5036595;28;20487;-77
2024/03/15 05:56:28;;;;;;;8.60;3.22;;;;;;;11.86;100.00;100477.81;5028692;28;20029;-76
2024/03/15 05:58:53;;;;;;;5.70;2.95;;;;;;;11.83;100.00;100478.16;5025280;28;20407;-75
2024/03/15 06:01:19;;;;;;;9.85;3.22;;;;;;;11.80;100.00;100481.91;5030833;28;20529;-75
2024/03/15 06:03:44;;;;;;;5.60;3.25;;;;;;;11.79;100.00;100484.66;5027329;28;20554;-77
2024/03/15 06:06:10;;;;;;;5.55;3.03;;;;;;;11.74;100.00;100485.19;5026345;28;20041;-75
2024/03/15 06:08:35;;;;;;;12.50;3.20;;;;;;;11.86;100.00;100486.41;5024477;28;20096;-75
2024/03/15 06:11:01;;;;;;;6.68;3.47;;;;;;;11.84;100.00;100485.78;5014735;28;20043;-76
2024/03/15 06:13:27;;;;;;;7.75;2.97;;;;;;;11.88;100.00;100489.66;5025715;28;20038;-75
2024/03/15 06:15:53;;;;;;;8.73;3.30;;;;;;;11.96;100.00;100488.00;5012489;28;20026;-76
2024/03/15 06:18:18;;;;;;;9.35;3.20;;;;;;;11.80;100.00;100489.69;5029007;28;20037;-75
2024/03/15 06:20:44;;;;;;;7.97;3.70;;;;;;;11.79;100.00;100493.28;5028341;28;20044;-75
2024/03/15 06:23:09;;;;;;;7.97;3.72;;;;;;;11.83;100.00;100491.97;5009336;28;20076;-76
2024/03/15 06:25:36;;;;;;;9.07;3.47;;;;;;;11.92;100.00;100492.72;5029960;28;20640;-75
2024/03/15 06:28:06;;;;;;;7.47;2.97;;;;;;;12.11;100.00;100504.50;5027305;28;20120;-76
2024/03/15 06:30:42;;;;;;;8.15;3.40;;;;;;;12.01;100.00;100496.91;5022219;28;20034;-76
2024/03/15 06:33:09;;;;;;;9.32;3.47;;;;;;;12.19;100.00;100501.03;5054093;28;20111;-75
2024/03/15 06:35:34;;;;;;;8.15;2.88;;;;;;;12.08;100.00;100502.22;5030917;28;20440;-76
2024/03/15 06:38:28;;;;;;;7.97;3.53;;;;;;;12.19;100.00;100498.44;5028753;28;20041;-75
2024/03/15 06:41:07;;;;;;;4.72;2.72;;;;;;;12.20;100.00;100497.44;5025099;28;20088;-76
2024/03/15 06:43:39;;;;;;;12.07;3.22;;;;;;;12.19;100.00;100501.81;5025575;28;20043;-76
2024/03/15 06:46:09;;;;;;;5.80;2.72;;;;;;;12.09;100.00;100503.81;5029316;28;20041;-76
2024/03/15 06:54:08;;;;;;;6.32;3.00;;;;;;;12.11;100.00;100514.88;5056581;28;20045;-76
2024/03/15 06:56:34;;;;;;;6.75;2.95;;;;;;;12.20;100.00;100519.03;5029517;28;20165;-77
2024/03/15 06:59:00;;;;;;;11.52;3.58;;;;;;;12.08;100.00;100516.03;5028687;28;20037;-75
2024/03/15 07:01:27;;;;;;;10.32;3.17;;;;;;;12.05;100.00;100519.00;5029565;28;20026;-75
2024/03/15 07:03:54;;;;;;;6.45;3.13;;;;;;;12.10;100.00;100528.06;5026540;28;20037;-76
2024/03/15 07:06:20;;;;;;;9.05;3.55;;;;;;;12.14;100.00;100531.91;5026853;28;20381;-75
2024/03/15 07:08:49;;;;;;;6.53;3.13;;;;;;;12.15;100.00;100526.56;5029350;28;20040;-75
2024/03/15 07:11:15;;;;;;;5.97;2.72;;;;;;;12.11;100.00;100530.47;5024742;28;20389;-75
2024/03/15 07:13:41;;;;;;;14.85;3.38;;;;;;;12.09;100.00;100537.63;5054030;28;20037;-76
2024/03/15 07:16:07;;;;;;;12.98;3.33;;;;;;;12.12;100.00;100539.88;5028369;28;20033;-76
2024/03/15 07:18:33;;;;;;;9.95;3.28;;;;;;;12.08;100.00;100536.81;5027034;28;20038;-75
2024/03/15 07:20:59;;;;;;;8.63;3.25;;;;;;;12.24;100.00;100533.31;5026994;28;20033;-75
2024/03/15 07:23:27;;;;;;;7.80;3.22;;;;;;;12.26;100.00;100530.53;5028162;28;20049;-74
2024/03/15 07:25:53;;;;;;;6.65;3.22;;;;;;;12.22;100.00;100537.88;5023478;28;20030;-75
2024/03/15 07:28:21;;;;;;;8.68;3.70;;;;;;;12.31;100.00;100530.81;5025688;28;20503;-75
2024/03/15 07:30:50;;;;;;;10.70;3.67;;;;;;;12.17;100.00;100541.97;5028102;28;20034;-76
2024/03/15 07:33:18;;;;;;;11.82;3.42;;;;;;;12.23;100.00;100544.69;5022990;28;20037;-75
2024/03/15 07:35:47;;;;;;;19.25;7.60;;;;;;;12.24;100.00;100540.28;5029166;28;20115;-76
2024/03/15 07:38:13;;;;;;;12.77;6.95;;;;;;;12.20;100.00;100545.00;5031267;28;20041;-76
2024/03/15 07:40:38;;;;;;;7.82;4.05;;;;;;;12.17;100.00;100549.78;5027221;28;20031;-75
2024/03/15 07:43:04;;;;;;;7.75;3.58;;;;;;;12.15;100.00;100549.13;5021909;28;20046;-75
2024/03/15 07:45:30;;;;;;;10.27;4.28;;;;;;;12.10;100.00;100549.66;5025770;28;20040;-76
2024/03/15 07:47:56;;;;;;;10.48;4.40;;;;;;;12.00;100.00;100555.06;5025468;28;20511;-76
2024/03/15 07:50:24;;;;;;;7.93;4.18;;;;;;;12.11;100.00;100553.88;5032857;28;20033;-75
2024/03/15 07:52:50;;;;;;;8.75;3.75;;;;;;;12.00;100.00;100549.06;5024496;28;20049;-76
2024/03/15 07:55:16;;;;;;;8.68;4.05;;;;;;;12.10;100.00;100552.25;5025917;28;20104;-75
2024/03/15 07:57:42;;;;;;;11.65;4.10;;;;;;;12.30;100.00;100547.41;5024316;28;20038;-76
2024/03/15 08:00:09;;;;;;;8.38;3.90;;;;;;;12.31;100.00;100556.00;5028211;28;20045;-76
2024/03/15 08:02:35;;;;;;;12.35;3.95;;;;;;;12.31;100.00;100550.81;5024119;28;20139;-75
2024/03/15 08:05:00;;;;;;;5.60;3.72;;;;;;;12.32;100.00;100548.03;5024116;28;20076;-78
2024/03/15 08:07:26;;;;;;;9.43;5.22;;;;;;;12.49;100.00;100551.34;5024705;28;20431;-76
2024/03/15 08:09:51;;;;;;;10.90;4.30;;;;;;;12.51;100.00;100551.97;5024126;28;20385;-75
2024/03/15 08:12:17;;;;;;;9.35;3.80;;;;;;;12.55;100.00;100552.44;5026327;28;20033;-76
2024/03/15 08:14:42;;;;;;;8.35;4.40;;;;;;;12.56;100.00;100554.84;5025648;28;20045;-75
2024/03/15 08:17:09;;;;;;;7.43;4.30;;;;;;;12.59;100.00;100544.09;5025446;28;20033;-76
2024/03/15 08:19:34;;;;;;;9.02;4.30;;;;;;;12.60;100.00;100548.31;5015839;28;20079;-77
2024/03/15 08:22:01;;;;;;;11.25;4.30;;;;;;;12.69;100.00;100548.25;5025045;28;20033;-75
2024/03/15 08:24:27;;;;;;;10.60;4.78;;;;;;;12.64;100.00;100546.19;5028485;28;20447;-76
2024/03/15 08:26:53;;;;;;;7.32;4.38;;;;;;;12.70;100.00;100548.06;5027822;28;20033;-76
2024/03/15 08:29:21;;;;;;;11.23;4.20;;;;;;;12.86;100.00;100549.72;5028789;28;20026;-76
2024/03/15 08:31:50;;;;;;;8.15;4.30;;;;;;;12.99;100.00;100544.69;5054245;28;20055;-77
2024/03/15 08:34:18;;;;;;;10.32;4.28;;;;;;;13.01;100.00;100550.53;5022705;28;20043;-75
2024/03/15 08:36:44;;;;;;;9.73;4.43;;;;;;;13.12;100.00;100554.50;5026255;28;20476;-75
2024/03/15 08:39:13;;;;;;;12.48;4.75;;;;;;;13.20;100.00;100553.59;5024778;28;20049;-76
2024/03/15 08:41:42;;;;;;;11.40;3.72;;;;;;;13.24;100.00;100553.09;5024534;28;20063;-75
2024/03/15 08:44:08;;;;;;;8.38;3.75;;;;;;;13.77;100.00;100560.00;5027314;28;20048;-75
2024/03/15 08:46:35;;;;;;;8.75;3.63;;;;;;;14.43;100.00;100552.06;5011956;28;20021;-76
2024/03/15 08:49:01;;;;;;;9.52;3.72;;;;;;;14.28;99.35;100556.50;5025374;28;20088;-75
2024/03/15 08:51:27;;;;;;;10.15;4.13;;;;;;;14.46;98.00;100554.28;5024524;28;20038;-75
2024/03/15 08:53:53;;;;;;;8.65;3.60;;;;;;;14.71;96.78;100553.91;5025657;28;20767;-76
2024/03/15 08:56:19;;;;;;;7.78;3.15;;;;;;;14.94;95.45;100558.91;5025442;28;20083;-75
2024/03/15 08:58:45;;;;;;;9.18;3.58;;;;;;;14.85;95.77;100568.66;5029698;28;20044;-76
2024/03/15 09:01:10;;;;;;;7.15;3.72;;;;;;;14.85;94.97;100566.06;5022817;28;20099;-76
2024/03/15 09:03:36;;;;;;;8.18;3.22;;;;;;;14.58;94.95;100558.03;5025208;28;20033;-76
2024/03/15 09:06:06;;;;;;;5.75;3.20;;;;;;;14.40;95.33;100555.03;5027971;28;20044;-76
2024/03/15 09:08:34;;;;;;;7.57;3.35;;;;;;;14.27;97.52;100553.09;5029939;28;20033;-76
2024/03/15 09:11:03;;;;;;;4.65;2.75;;;;;;;14.30;96.29;100554.53;5026626;28;20053;-76
2024/03/15 09:13:29;;;;;;;5.22;2.40;;;;;;;14.37;95.54;100555.38;5026131;28;20068;-75
2024/03/15 09:15:56;;;;;;;10.68;2.95;;;;;;;14.38;95.87;100555.19;5032547;28;20115;-75
2024/03/15 09:18:22;;;;;;;11.25;3.13;;;;;;;14.48;95.59;100546.25;5022265;28;20029;-76
2024/03/15 09:20:48;;;;;;;7.95;3.08;;;;;;;14.51;95.51;100558.94;5028051;28;20398;-75
2024/03/15 09:23:14;;;;;;;10.65;3.47;;;;;;;14.50;95.55;100559.91;5027962;28;20029;-75
2024/03/15 09:25:42;;;;;;;7.18;2.22;;;;;;;14.54;92.73;100543.72;5010477;28;20030;-77
2024/03/15 09:28:09;;;;;;;5.68;2.63;;;;;;;14.53;93.14;100549.91;5029217;28;20120;-76
2024/03/15 09:30:53;;;;;;;6.78;2.35;;;;;;;14.69;91.99;100553.28;5033839;28;20037;-75
2024/03/15 09:33:19;;;;;;;6.60;2.53;;;;;;;14.80;91.45;100563.22;5028087;28;20084;-75
2024/03/15 09:35:45;;;;;;;6.75;2.28;;;;;;;14.90;90.88;100555.88;5027383;28;20037;-76
2024/03/15 09:38:11;;;;;;;4.25;2.22;;;;;;;14.91;91.70;100554.06;5032883;28;20124;-76
2024/03/15 09:40:37;;;;;;;4.82;2.30;;;;;;;15.11;90.27;100559.41;5028053;28;20073;-76
2024/03/15 09:43:04;;;;;;;13.65;3.08;;;;;;;14.94;89.64;100564.13;5028910;28;20037;-75
2024/03/15 09:45:30;;;;;;;6.70;2.55;;;;;;;15.04;90.00;100561.97;5031529;28;20060;-75
2024/03/15 09:47:59;;;;;;;5.60;2.33;;;;;;;15.25;90.16;100570.75;5027054;28;20045;-75
2024/03/15 09:50:25;;;;;;;5.57;2.10;;;;;;;15.23;87.70;100562.28;5036109;28;20048;-75
2024/03/15 09:52:55;;;;;;;8.18;2.15;;;;;;;15.05;90.09;100568.81;5029738;28;20045;-75
2024/03/15 09:55:21;;;;;;;10.98;2.35;;;;;;;15.18;89.77;100568.06;5020665;28;20167;-75
2024/03/15 09:57:49;;;;;;;9.73;2.20;;;;;;;15.33;87.38;100565.34;5059277;28;20045;-77
2024/03/15 10:00:16;;;;;;;13.18;3.00;;;;;;;15.23;86.81;100563.09;5029817;28;20056;-75
2024/03/15 10:02:44;;;;;;;4.80;2.38;;;;;;;15.19;86.67;100562.66;5024113;28;20072;-75
2024/03/15 10:05:11;;;;;;;5.25;2.15;;;;;;;15.54;86.87;100560.06;5032658;28;20041;-74
2024/03/15 10:07:37;;;;;;;9.05;2.28;;;;;;;15.50;85.34;100555.38;5029549;28;20076;-76
2024/03/15 10:10:05;;;;;;;8.18;3.15;;;;;;;15.34;85.01;100562.56;5050938;28;20037;-75
2024/03/15 10:12:30;;;;;;;4.60;2.13;;;;;;;15.46;86.01;100556.78;5046967;28;20053;-76
2024/03/15 10:14:57;;;;;;;9.68;2.22;;;;;;;15.32;86.22;100567.16;5028132;28;20439;-75
2024/03/15 10:17:23;;;;;;;7.93;2.58;;;;;;;15.13;87.28;100563.44;5029405;28;20034;-76
2024/03/15 10:19:48;;;;;;;4.82;1.90;;;;;;;15.25;87.98;100565.53;5027105;28;20570;-76
2024/03/15 10:22:14;;;;;;;6.70;2.17;;;;;;;15.43;87.25;100562.41;5027230;28;20041;-75
2024/03/15 10:24:40;;;;;;;8.55;2.25;;;;;;;15.57;86.82;100566.69;5025789;28;20026;-76
2024/03/15 10:27:14;;;;;;;7.63;2.13;;;;;;;15.41;85.89;100560.00;5013306;28;20033;-75
2024/03/15 10:29:39;;;;;;;3.90;1.98;;;;;;;15.49;86.44;100570.28;5026508;28;20033;-75
2024/03/15 10:32:11;;;;;;;6.00;1.83;;;;;;;15.63;84.32;100558.06;5025749;28;20049;-75
2024/03/15 10:34:37;;;;;;;5.68;1.52;;;;;;;15.65;82.77;100560.47;5026145;28;20029;-76
2024/03/15 10:37:10;;;;;;;9.20;2.00;;;;;;;15.70;81.94;100551.06;5027797;28;20091;-76
2024/03/15 10:39:35;;;;;;;9.95;1.77;;;;;;;15.71;82.91;100549.28;5024962;28;20117;-75
2024/03/15 10:42:01;;;;;;;7.03;1.88;;;;;;;15.90;82.96;100553.78;5029746;28;20506;-76
2024/03/15 10:44:28;;;;;;;5.22;1.63;;;;;;;16.21;83.95;100557.66;5027446;28;20102;-76
2024/03/15 10:46:54;;;;;;;4.55;1.80;;;;;;;16.26;80.30;100552.66;5057232;28;20040;-76
2024/03/15 10:49:21;;;;;;;8.70;1.50;;;;;;;16.26;81.54;100554.47;5008592;28;20120;-77
2024/03/15 10:51:47;;;;;;;3.90;1.42;;;;;;;16.30;81.17;100548.63;5012309;28;20022;-76
2024/03/15 10:54:19;;;;;;;5.63;2.17;;;;;;;16.15;80.68;100550.63;5027453;28;20098;-75
2024/03/15 10:56:47;;;;;;;4.13;1.70;;;;;;;16.03;80.97;100552.19;5025489;28;20039;-76
2024/03/15 10:59:12;;;;;;;5.68;1.85;;;;;;;16.05;83.02;100547.56;5026005;28;22034;-76
2024/03/15 11:01:40;;;;;;;3.38;1.48;;;;;;;16.00;81.28;100555.22;5025405;28;20028;-76
2024/03/15 11:04:12;;;;;;;3.08;1.27;;;;;;;15.81;81.77;100556.78;5028016;28;20034;-75
2024/03/15 11:06:44;;;;;;;6.72;1.67;;;;;;;15.82;81.75;100558.38;5027103;28;20029;-77
2024/03/15 11:09:19;;;;;;;4.60;1.70;;;;;;;16.02;82.81;100553.19;5023370;28;20530;-76
2024/03/15 11:11:54;;;;;;;8.63;1.75;;;;;;;16.20;82.67;100556.06;5029030;28;20634;-75
2024/03/15 11:14:22;;;;;;;4.25;1.63;;;;;;;16.28;80.68;100555.06;5026839;28;20033;-75
2024/03/15 11:16:56;;;;;;;6.63;1.63;;;;;;;16.23;78.31;100550.41;5026506;28;20479;-75
2024/03/15 11:19:22;;;;;;;3.58;1.50;;;;;;;16.30;79.71;100548.63;5032852;28;20141;-76